createdAt,value
2016-02-12T00:00:45.490Z,940.75
2016-02-12T00:01:45.539Z,940.77
2016-02-12T00:02:45.385Z,940.77
2016-02-12T00:03:45.357Z,940.78
2016-02-12T00:04:45.391Z,940.79
2016-02-12T00:05:45.160Z,940.77
2016-02-12T00:06:45.662Z,940.77
2016-02-12T00:07:45.181Z,940.75
2016-02-12T00:08:44.997Z,940.81
2016-02-12T00:09:45.234Z,940.76
2016-02-12T00:10:44.822Z,940.77
2016-02-12T00:11:44.780Z,940.79
2016-02-12T00:12:44.955Z,940.81
2016-02-12T00:13:44.707Z,940.82
2016-02-12T00:14:44.679Z,940.83
2016-02-12T00:15:44.759Z,940.82
2016-02-12T00:16:44.560Z,940.86
2016-02-12T00:17:44.515Z,940.85
2016-02-12T00:18:44.628Z,940.84
2016-02-12T00:19:44.366Z,940.81
2016-02-12T00:20:44.618Z,940.83
2016-02-12T00:21:44.215Z,940.84
2016-02-12T00:22:44.326Z,940.84
2016-02-12T00:23:44.116Z,940.85
2016-02-12T00:24:44.029Z,940.81
2016-02-12T00:25:44.097Z,940.79
2016-02-12T00:26:43.901Z,940.8
2016-02-12T00:27:43.798Z,940.82
2016-02-12T00:28:43.728Z,940.82
2016-02-12T00:29:44.087Z,940.82
2016-02-12T00:30:43.913Z,940.82
2016-02-12T00:31:43.896Z,940.81
2016-02-12T00:32:43.457Z,940.81
2016-02-12T00:33:43.442Z,940.8
2016-02-12T00:34:43.741Z,940.79
2016-02-12T00:35:43.305Z,940.8
2016-02-12T00:36:43.353Z,940.82
2016-02-12T00:37:43.264Z,940.8
2016-02-12T00:38:43.391Z,940.79
2016-02-12T00:39:43.048Z,940.8
2016-02-12T00:40:43.004Z,940.83
2016-02-12T00:41:43.067Z,940.8
2016-02-12T00:42:42.896Z,940.85
2016-02-12T00:43:42.866Z,940.88
2016-02-12T00:44:42.776Z,940.81
2016-02-12T00:45:42.700Z,940.86
2016-02-12T00:46:43.046Z,940.84
2016-02-12T00:47:42.595Z,940.89
2016-02-12T00:48:42.614Z,940.87
2016-02-12T00:49:42.445Z,940.86
2016-02-12T00:50:42.526Z,940.86
2016-02-12T00:51:42.403Z,940.88
2016-02-12T00:52:42.437Z,940.85
2016-02-12T00:53:42.737Z,940.85
2016-02-12T00:54:42.318Z,940.87
2016-02-12T00:55:42.134Z,940.88
2016-02-12T00:56:42.074Z,940.84
2016-02-12T00:57:42.029Z,940.85
2016-02-12T00:58:42.299Z,940.88
2016-02-12T00:59:41.895Z,940.84
2016-02-12T01:00:41.851Z,940.83
2016-02-12T01:01:41.838Z,940.9
2016-02-12T01:02:41.802Z,940.88
2016-02-12T01:03:41.899Z,940.9
2016-02-12T01:04:41.557Z,940.91
2016-02-12T01:05:41.498Z,940.92
2016-02-12T01:06:41.469Z,940.96
2016-02-12T01:07:41.940Z,940.97
2016-02-12T01:08:41.881Z,940.97
2016-02-12T01:09:41.290Z,940.96
2016-02-12T01:10:41.496Z,940.97
2016-02-12T01:11:41.173Z,941.01
2016-02-12T01:12:41.101Z,940.99
2016-02-12T01:13:41.432Z,941.03
2016-02-12T01:14:40.982Z,941.05
2016-02-12T01:15:41.030Z,941.03
2016-02-12T01:16:41.393Z,940.99
2016-02-12T01:17:40.752Z,940.98
2016-02-12T01:18:40.707Z,941
2016-02-12T01:19:40.632Z,940.97
2016-02-12T01:20:40.558Z,940.93
2016-02-12T01:21:40.498Z,940.94
2016-02-12T01:22:40.438Z,940.97
2016-02-12T01:23:40.394Z,940.99
2016-02-12T01:24:40.335Z,941.01
2016-02-12T01:25:40.274Z,940.97
2016-02-12T01:26:40.199Z,940.98
2016-02-12T01:27:40.139Z,941.02
2016-02-12T01:28:40.079Z,941
2016-02-12T01:29:40.035Z,940.97
2016-02-12T01:30:39.960Z,940.98
2016-02-12T01:31:39.916Z,941.01
2016-02-12T01:32:39.841Z,940.98
2016-02-12T01:33:39.782Z,940.96
2016-02-12T01:34:39.721Z,940.98
2016-02-12T01:35:39.663Z,940.97
2016-02-12T01:36:39.619Z,940.94
2016-02-12T01:37:39.543Z,940.93
2016-02-12T01:38:39.483Z,940.93
2016-02-12T01:39:39.439Z,940.94
2016-02-12T01:40:39.351Z,940.89
2016-02-12T01:41:39.306Z,940.89
2016-02-12T01:42:39.247Z,940.84
2016-02-12T01:43:39.190Z,940.87
2016-02-12T01:44:39.114Z,940.85
2016-02-12T01:45:39.070Z,940.86
2016-02-12T01:46:39.120Z,940.84
2016-02-12T01:47:38.936Z,940.86
2016-02-12T01:48:38.908Z,940.87
2016-02-12T01:49:38.848Z,940.85
2016-02-12T01:50:38.772Z,940.85
2016-02-12T01:51:38.712Z,940.9
2016-02-12T01:52:38.653Z,940.91
2016-02-12T01:53:38.608Z,940.93
2016-02-12T01:54:38.580Z,940.93
2016-02-12T01:55:38.473Z,940.92
2016-02-12T01:56:38.413Z,940.93
2016-02-12T01:57:38.354Z,940.93
2016-02-12T01:58:38.295Z,940.94
2016-02-12T01:59:38.234Z,940.88
2016-02-12T02:00:38.175Z,940.85
2016-02-12T02:01:38.131Z,940.86
2016-02-12T02:02:38.039Z,940.87
2016-02-12T02:03:37.995Z,940.85
2016-02-12T02:04:37.919Z,940.87
2016-02-12T02:05:37.923Z,940.85
2016-02-12T02:06:37.817Z,940.85
2016-02-12T02:07:37.757Z,940.84
2016-02-12T02:08:37.682Z,940.84
2016-02-12T02:09:37.637Z,940.84
2016-02-12T02:10:37.578Z,940.82
2016-02-12T02:11:37.518Z,940.82
2016-02-12T02:12:37.458Z,940.84
2016-02-12T02:13:37.415Z,940.79
2016-02-12T02:14:37.341Z,940.79
2016-02-12T02:15:37.266Z,940.78
2016-02-12T02:16:37.221Z,940.81
2016-02-12T02:17:37.177Z,940.79
2016-02-12T02:18:37.101Z,940.81
2016-02-12T02:19:37.057Z,940.8
2016-02-12T02:20:36.982Z,940.77
2016-02-12T02:21:36.954Z,940.77
2016-02-12T02:22:36.846Z,940.79
2016-02-12T02:23:36.802Z,940.78
2016-02-12T02:24:36.743Z,940.84
2016-02-12T02:25:36.714Z,940.81
2016-02-12T02:26:36.638Z,940.79
2016-02-12T02:27:36.563Z,940.79
2016-02-12T02:28:36.503Z,940.81
2016-02-12T02:29:36.443Z,940.85
2016-02-12T02:30:36.399Z,940.87
2016-02-12T02:31:36.324Z,940.86
2016-02-12T02:32:36.264Z,940.86
2016-02-12T02:33:36.204Z,940.86
2016-02-12T02:34:36.145Z,940.87
2016-02-12T02:35:36.084Z,940.85
2016-02-12T02:36:36.025Z,940.86
2016-02-12T02:37:35.981Z,940.82
2016-02-12T02:38:35.905Z,940.81
2016-02-12T02:39:35.861Z,940.77
2016-02-12T02:40:35.802Z,940.73
2016-02-12T02:41:35.726Z,940.73
2016-02-12T02:42:35.670Z,940.71
2016-02-12T02:43:35.611Z,940.72
2016-02-12T02:44:35.551Z,940.71
2016-02-12T02:45:35.538Z,940.73
2016-02-12T02:46:35.432Z,940.71
2016-02-12T02:47:35.418Z,940.71
2016-02-12T02:48:35.314Z,940.69
2016-02-12T02:49:35.254Z,940.69
2016-02-12T02:50:35.226Z,940.67
2016-02-12T02:51:35.166Z,940.64
2016-02-12T02:52:35.091Z,940.65
2016-02-12T02:53:35.016Z,940.63
2016-02-12T02:54:34.956Z,940.62
2016-02-12T02:55:34.897Z,940.64
2016-02-12T02:56:34.852Z,940.67
2016-02-12T02:57:34.823Z,940.63
2016-02-12T02:58:34.857Z,940.65
2016-02-12T02:59:34.657Z,940.63
2016-02-12T03:00:34.614Z,940.68
2016-02-12T03:01:34.555Z,940.62
2016-02-12T03:02:34.480Z,940.64
2016-02-12T03:03:34.435Z,940.66
2016-02-12T03:04:34.360Z,940.63
2016-02-12T03:05:34.300Z,940.65
2016-02-12T03:06:34.272Z,940.63
2016-02-12T03:07:34.211Z,940.64
2016-02-12T03:08:34.138Z,940.61
2016-02-12T03:09:34.079Z,940.58
2016-02-12T03:10:34.003Z,940.57
2016-02-12T03:11:33.948Z,940.58
2016-02-12T03:12:33.873Z,940.52
2016-02-12T03:13:33.828Z,940.55
2016-02-12T03:14:33.769Z,940.53
2016-02-12T03:15:33.710Z,940.51
2016-02-12T03:16:33.665Z,940.54
2016-02-12T03:17:33.591Z,940.56
2016-02-12T03:18:33.531Z,940.52
2016-02-12T03:19:33.472Z,940.58
2016-02-12T03:20:33.411Z,940.53
2016-02-12T03:21:33.352Z,940.56
2016-02-12T03:22:33.292Z,940.6
2016-02-12T03:23:33.232Z,940.57
2016-02-12T03:24:33.172Z,940.57
2016-02-12T03:25:33.113Z,940.56
2016-02-12T03:26:33.052Z,940.57
2016-02-12T03:27:33.009Z,940.55
2016-02-12T03:28:32.933Z,940.57
2016-02-12T03:29:32.873Z,940.55
2016-02-12T03:30:32.813Z,940.55
2016-02-12T03:31:32.754Z,940.58
2016-02-12T03:32:32.725Z,940.59
2016-02-12T03:33:32.649Z,940.55
2016-02-12T03:34:32.591Z,940.6
2016-02-12T03:35:32.531Z,940.56
2016-02-12T03:36:32.471Z,940.58
2016-02-12T03:37:32.412Z,940.54
2016-02-12T03:38:32.337Z,940.58
2016-02-12T03:39:32.292Z,940.55
2016-02-12T03:40:32.217Z,940.54
2016-02-12T03:41:32.173Z,940.51
2016-02-12T03:42:32.097Z,940.51
2016-02-12T03:43:32.043Z,940.52
2016-02-12T03:44:31.998Z,940.52
2016-02-12T03:45:31.938Z,940.52
2016-02-12T03:46:31.862Z,940.54
2016-02-12T03:47:31.818Z,940.52
2016-02-12T03:48:31.773Z,940.54
2016-02-12T03:49:31.698Z,940.52
2016-02-12T03:50:31.622Z,940.55
2016-02-12T03:51:31.579Z,940.5
2016-02-12T03:52:31.519Z,940.56
2016-02-12T03:53:31.444Z,940.51
2016-02-12T03:54:31.400Z,940.5
2016-02-12T03:55:31.340Z,940.52
2016-02-12T03:56:31.281Z,940.52
2016-02-12T03:57:31.220Z,940.53
2016-02-12T03:58:31.161Z,940.49
2016-02-12T03:59:31.101Z,940.5
2016-02-12T04:00:31.041Z,940.51
2016-02-12T04:01:30.981Z,940.48
2016-02-12T04:02:30.936Z,940.51
2016-02-12T04:03:30.862Z,940.51
2016-02-12T04:04:30.803Z,940.51
2016-02-12T04:05:30.742Z,940.5
2016-02-12T04:06:30.683Z,940.52
2016-02-12T04:07:30.639Z,940.49
2016-02-12T04:08:30.563Z,940.48
2016-02-12T04:09:30.503Z,940.46
2016-02-12T04:10:30.444Z,940.43
2016-02-12T04:11:30.386Z,940.45
2016-02-12T04:12:30.330Z,940.48
2016-02-12T04:13:30.270Z,940.44
2016-02-12T04:14:30.211Z,940.47
2016-02-12T04:15:30.151Z,940.47
2016-02-12T04:16:30.091Z,940.49
2016-02-12T04:17:30.032Z,940.43
2016-02-12T04:18:29.972Z,940.45
2016-02-12T04:19:29.912Z,940.43
2016-02-12T04:20:29.855Z,940.45
2016-02-12T04:21:29.794Z,940.44
2016-02-12T04:22:29.735Z,940.39
2016-02-12T04:23:29.675Z,940.4
2016-02-12T04:24:29.615Z,940.38
2016-02-12T04:25:29.555Z,940.37
2016-02-12T04:26:29.511Z,940.36
2016-02-12T04:27:29.451Z,940.34
2016-02-12T04:28:29.393Z,940.35
2016-02-12T04:29:29.317Z,940.31
2016-02-12T04:30:29.259Z,940.36
2016-02-12T04:31:29.198Z,940.33
2016-02-12T04:32:29.153Z,940.35
2016-02-12T04:33:29.095Z,940.32
2016-02-12T04:34:29.034Z,940.35
2016-02-12T04:35:28.959Z,940.39
2016-02-12T04:36:28.915Z,940.34
2016-02-12T04:37:28.856Z,940.35
2016-02-12T04:38:28.796Z,940.38
2016-02-12T04:39:28.737Z,940.41
2016-02-12T04:40:28.663Z,940.43
2016-02-12T04:41:28.603Z,940.41
2016-02-12T04:42:28.543Z,940.43
2016-02-12T04:43:28.500Z,940.45
2016-02-12T04:44:28.424Z,940.39
2016-02-12T04:45:28.380Z,940.35
2016-02-12T04:46:28.306Z,940.32
2016-02-12T04:47:28.262Z,940.33
2016-02-12T04:48:28.186Z,940.32
2016-02-12T04:49:28.127Z,940.34
2016-02-12T04:50:28.083Z,940.33
2016-02-12T04:51:28.008Z,940.32
2016-02-12T04:52:27.964Z,940.35
2016-02-12T04:53:27.904Z,940.33
2016-02-12T04:54:27.844Z,940.35
2016-02-12T04:55:27.784Z,940.34
2016-02-12T04:56:27.725Z,940.35
2016-02-12T04:57:27.665Z,940.34
2016-02-12T04:58:27.604Z,940.37
2016-02-12T04:59:27.545Z,940.36
2016-02-12T05:00:27.485Z,940.37
2016-02-12T05:01:27.426Z,940.4
2016-02-12T05:02:27.366Z,940.43
2016-02-12T05:03:27.306Z,940.42
2016-02-12T05:04:27.246Z,940.44
2016-02-12T05:05:27.186Z,940.42
2016-02-12T05:06:27.128Z,940.38
2016-02-12T05:07:27.068Z,940.39
2016-02-12T05:08:27.007Z,940.4
2016-02-12T05:09:26.948Z,940.35
2016-02-12T05:10:26.904Z,940.31
2016-02-12T05:11:26.844Z,940.32
2016-02-12T05:12:26.774Z,940.36
2016-02-12T05:13:26.713Z,940.39
2016-02-12T05:14:26.654Z,940.35
2016-02-12T05:15:26.593Z,940.36
2016-02-12T05:16:26.534Z,940.36
2016-02-12T05:17:26.474Z,940.37
2016-02-12T05:18:26.415Z,940.36
2016-02-12T05:19:26.371Z,940.38
2016-02-12T05:20:26.312Z,940.39
2016-02-12T05:21:26.235Z,940.41
2016-02-12T05:22:26.177Z,940.35
2016-02-12T05:23:26.133Z,940.37
2016-02-12T05:24:26.058Z,940.36
2016-02-12T05:25:26.014Z,940.36
2016-02-12T05:26:25.953Z,940.33
2016-02-12T05:27:25.893Z,940.34
2016-02-12T05:28:25.819Z,940.31
2016-02-12T05:29:25.774Z,940.33
2016-02-12T05:30:25.714Z,940.3
2016-02-12T05:31:25.654Z,940.24
2016-02-12T05:32:25.594Z,940.25
2016-02-12T05:33:25.535Z,940.28
2016-02-12T05:34:25.475Z,940.21
2016-02-12T05:35:25.416Z,940.23
2016-02-12T05:36:25.355Z,940.2
2016-02-12T05:37:25.295Z,940.19
2016-02-12T05:38:25.252Z,940.2
2016-02-12T05:39:25.176Z,940.18
2016-02-12T05:40:25.134Z,940.18
2016-02-12T05:41:25.063Z,940.2
2016-02-12T05:42:25.002Z,940.14
2016-02-12T05:43:24.945Z,940.1
2016-02-12T05:44:24.884Z,940.15
2016-02-12T05:45:24.825Z,940.13
2016-02-12T05:46:24.765Z,940.09
2016-02-12T05:47:24.720Z,940.11
2016-02-12T05:48:24.645Z,940.09
2016-02-12T05:49:24.587Z,940.06
2016-02-12T05:50:24.526Z,940.05
2016-02-12T05:51:24.468Z,940.02
2016-02-12T05:52:24.407Z,940
2016-02-12T05:53:24.348Z,939.96
2016-02-12T05:54:24.303Z,939.97
2016-02-12T05:55:24.243Z,940.01
2016-02-12T05:56:24.184Z,939.95
2016-02-12T05:57:24.126Z,939.98
2016-02-12T05:58:24.051Z,940
2016-02-12T05:59:24.007Z,940.01
2016-02-12T06:00:23.950Z,940.03
2016-02-12T06:01:23.890Z,940.02
2016-02-12T06:02:23.831Z,940.08
2016-02-12T06:03:23.770Z,940.07
2016-02-12T06:04:23.711Z,940.09
2016-02-12T06:05:23.651Z,940.11
2016-02-12T06:06:23.607Z,940.07
2016-02-12T06:07:23.531Z,940.07
2016-02-12T06:08:23.472Z,940.08
2016-02-12T06:09:23.412Z,940.06
2016-02-12T06:10:23.356Z,940.07
2016-02-12T06:11:23.296Z,940.11
2016-02-12T06:12:23.221Z,940.09
2016-02-12T06:13:23.161Z,940.08
2016-02-12T06:14:23.132Z,940.05
2016-02-12T06:15:23.073Z,940.05
2016-02-12T06:16:22.997Z,940.08
2016-02-12T06:17:22.938Z,940.08
2016-02-12T06:18:22.879Z,940.09
2016-02-12T06:19:22.803Z,940.05
2016-02-12T06:20:22.759Z,940.08
2016-02-12T06:21:22.698Z,940.05
2016-02-12T06:22:22.640Z,940.02
2016-02-12T06:23:22.595Z,940.01
2016-02-12T06:24:22.535Z,940.06
2016-02-12T06:25:22.460Z,940.04
2016-02-12T06:26:22.401Z,940.03
2016-02-12T06:27:22.357Z,940.08
2016-02-12T06:28:22.282Z,940.05
2016-02-12T06:29:22.221Z,940.1
2016-02-12T06:30:22.162Z,940.06
2016-02-12T06:31:22.102Z,940.1
2016-02-12T06:32:22.058Z,940.07
2016-02-12T06:33:21.998Z,940.08
2016-02-12T06:34:21.923Z,940.1
2016-02-12T06:35:21.865Z,940.07
2016-02-12T06:36:21.821Z,940.04
2016-02-12T06:37:21.761Z,940.07
2016-02-12T06:38:21.686Z,940.05
2016-02-12T06:39:21.657Z,940.07
2016-02-12T06:40:21.581Z,940.06
2016-02-12T06:41:21.523Z,940.03
2016-02-12T06:42:21.478Z,940
2016-02-12T06:43:21.406Z,939.98
2016-02-12T06:44:21.345Z,939.96
2016-02-12T06:45:21.287Z,939.94
2016-02-12T06:46:21.226Z,939.95
2016-02-12T06:47:21.167Z,939.94
2016-02-12T06:48:21.107Z,939.94
2016-02-12T06:49:21.062Z,939.95
2016-02-12T06:50:20.987Z,939.92
2016-02-12T06:51:20.928Z,939.9
2016-02-12T06:52:20.869Z,939.92
2016-02-12T06:53:20.809Z,939.92
2016-02-12T06:54:20.765Z,939.91
2016-02-12T06:55:20.690Z,939.86
2016-02-12T06:56:20.630Z,939.84
2016-02-12T06:57:20.633Z,939.89
2016-02-12T06:58:20.526Z,939.86
2016-02-12T06:59:20.497Z,939.83
2016-02-12T07:00:20.390Z,939.81
2016-02-12T07:01:20.348Z,939.84
2016-02-12T07:02:20.288Z,939.82
2016-02-12T07:03:20.213Z,939.82
2016-02-12T07:04:20.169Z,939.83
2016-02-12T07:05:20.109Z,939.77
2016-02-12T07:06:20.050Z,939.78
2016-02-12T07:07:19.990Z,939.78
2016-02-12T07:08:19.914Z,939.74
2016-02-12T07:09:19.871Z,939.75
2016-02-12T07:10:19.842Z,939.75
2016-02-12T07:11:19.736Z,939.71
2016-02-12T07:12:19.742Z,939.77
2016-02-12T07:13:19.635Z,939.71
2016-02-12T07:14:19.577Z,939.72
2016-02-12T07:15:19.500Z,939.72
2016-02-12T07:16:19.456Z,939.72
2016-02-12T07:17:19.397Z,939.65
2016-02-12T07:18:19.352Z,939.66
2016-02-12T07:19:19.293Z,939.58
2016-02-12T07:20:19.217Z,939.61
2016-02-12T07:21:19.173Z,939.56
2016-02-12T07:22:19.113Z,939.59
2016-02-12T07:23:19.053Z,939.57
2016-02-12T07:24:18.978Z,939.55
2016-02-12T07:25:18.918Z,939.56
2016-02-12T07:26:18.858Z,939.54
2016-02-12T07:27:18.940Z,939.51
2016-02-12T07:28:18.739Z,939.52
2016-02-12T07:29:18.695Z,939.53
2016-02-12T07:30:18.634Z,939.48
2016-02-12T07:31:18.590Z,939.51
2016-02-12T07:32:18.515Z,939.47
2016-02-12T07:33:18.486Z,939.49
2016-02-12T07:34:18.412Z,939.48
2016-02-12T07:35:18.367Z,939.44
2016-02-12T07:36:18.291Z,939.43
2016-02-12T07:37:18.216Z,939.45
2016-02-12T07:38:18.157Z,939.39
2016-02-12T07:39:18.112Z,939.38
2016-02-12T07:40:18.038Z,939.39
2016-02-12T07:41:17.979Z,939.38
2016-02-12T07:42:17.918Z,939.37
2016-02-12T07:43:17.859Z,939.39
2016-02-12T07:44:17.799Z,939.36
2016-02-12T07:45:17.755Z,939.36
2016-02-12T07:46:17.680Z,939.36
2016-02-12T07:47:17.621Z,939.31
2016-02-12T07:48:17.577Z,939.31
2016-02-12T07:49:17.501Z,939.3
2016-02-12T07:50:17.442Z,939.26
2016-02-12T07:51:17.397Z,939.24
2016-02-12T07:52:17.337Z,939.22
2016-02-12T07:53:17.308Z,939.25
2016-02-12T07:54:17.218Z,939.21
2016-02-12T07:55:17.159Z,939.19
2016-02-12T07:56:17.099Z,939.17
2016-02-12T07:57:17.117Z,939.16
2016-02-12T07:58:16.995Z,939.18
2016-02-12T07:59:16.935Z,939.17
2016-02-12T08:00:16.860Z,939.18
2016-02-12T08:01:16.816Z,939.13
2016-02-12T08:02:16.740Z,939.13
2016-02-12T08:03:16.680Z,939.09
2016-02-12T08:04:16.654Z,939.07
2016-02-12T08:05:16.609Z,939.03
2016-02-12T08:06:16.503Z,939.05
2016-02-12T08:07:16.459Z,939.02
2016-02-12T08:08:16.399Z,939.02
2016-02-12T08:09:16.339Z,938.98
2016-02-12T08:10:16.279Z,938.93
2016-02-12T08:11:16.251Z,938.96
2016-02-12T08:12:16.191Z,938.94
2016-02-12T08:13:16.135Z,938.94
2016-02-12T08:14:16.044Z,938.95
2016-02-12T08:15:15.985Z,938.91
2016-02-12T08:16:15.925Z,938.85
2016-02-12T08:17:15.881Z,938.85
2016-02-12T08:18:15.805Z,938.87
2016-02-12T08:19:15.746Z,938.85
2016-02-12T08:20:15.702Z,938.84
2016-02-12T08:21:15.628Z,938.87
2016-02-12T08:22:15.584Z,938.82
2016-02-12T08:23:15.524Z,938.81
2016-02-12T08:24:15.452Z,938.82
2016-02-12T08:25:15.423Z,938.85
2016-02-12T08:26:15.348Z,938.8
2016-02-12T08:27:15.287Z,938.8
2016-02-12T08:28:15.243Z,938.8
2016-02-12T08:29:15.167Z,938.78
2016-02-12T08:30:15.118Z,938.76
2016-02-12T08:31:15.231Z,938.85
2016-02-12T08:32:14.984Z,938.8
2016-02-12T08:33:14.939Z,938.8
2016-02-12T08:34:14.880Z,938.84
2016-02-12T08:35:14.820Z,938.84
2016-02-12T08:36:14.760Z,938.91
2016-02-12T08:37:14.701Z,938.89
2016-02-12T08:38:14.640Z,938.86
2016-02-12T08:39:14.597Z,938.9
2016-02-12T08:40:14.537Z,938.87
2016-02-12T08:41:14.466Z,938.81
2016-02-12T08:42:14.406Z,938.8
2016-02-12T08:43:14.347Z,938.82
2016-02-12T08:44:14.304Z,938.8
2016-02-12T08:45:14.229Z,938.77
2016-02-12T08:46:14.169Z,938.72
2016-02-12T08:47:14.124Z,938.69
2016-02-12T08:48:14.081Z,938.67
2016-02-12T08:49:14.005Z,938.67
2016-02-12T08:50:13.963Z,938.66
2016-02-12T08:51:13.903Z,938.63
2016-02-12T08:52:13.843Z,938.6
2016-02-12T08:53:13.768Z,938.6
2016-02-12T08:54:13.723Z,938.53
2016-02-12T08:55:13.711Z,938.54
2016-02-12T08:56:13.620Z,938.53
2016-02-12T08:57:13.544Z,938.49
2016-02-12T08:58:13.501Z,938.54
2016-02-12T08:59:13.442Z,938.53
2016-02-12T09:00:13.365Z,938.53
2016-02-12T09:01:13.306Z,938.53
2016-02-12T09:02:13.278Z,938.46
2016-02-12T09:03:13.202Z,938.47
2016-02-12T09:04:13.158Z,938.42
2016-02-12T09:05:13.087Z,938.42
2016-02-12T09:06:13.044Z,938.41
2016-02-12T09:07:12.999Z,938.4
2016-02-12T09:08:12.955Z,938.33
2016-02-12T09:09:12.880Z,938.36
2016-02-12T09:10:12.819Z,938.31
2016-02-12T09:11:12.807Z,938.31
2016-02-12T09:12:12.750Z,938.25
2016-02-12T09:13:12.658Z,938.3
2016-02-12T09:14:12.614Z,938.26
2016-02-12T09:15:12.602Z,938.27
2016-02-12T09:16:12.528Z,938.26
2016-02-12T09:17:12.451Z,938.23
2016-02-12T09:18:12.407Z,938.24
2016-02-12T09:19:12.348Z,938.19
2016-02-12T09:20:12.303Z,938.24
2016-02-12T09:21:12.260Z,938.22
2016-02-12T09:22:12.185Z,938.16
2016-02-12T09:23:12.140Z,938.21
2016-02-12T09:24:12.083Z,938.12
2016-02-12T09:25:12.023Z,938.13
2016-02-12T09:26:11.994Z,938.1
2016-02-12T09:27:11.935Z,938.07
2016-02-12T09:28:11.892Z,937.99
2016-02-12T09:29:11.844Z,938.02
2016-02-12T09:30:11.788Z,937.95
2016-02-12T09:31:11.730Z,937.96
2016-02-12T09:32:11.657Z,937.96
2016-02-12T09:33:11.592Z,937.93
2016-02-12T09:34:11.536Z,937.95
2016-02-12T09:35:11.488Z,937.99
2016-02-12T09:36:11.424Z,937.98
2016-02-12T09:37:11.389Z,937.98
2016-02-12T09:38:11.325Z,938
2016-02-12T09:39:11.294Z,937.98
2016-02-12T09:40:11.247Z,937.95
2016-02-12T09:41:11.186Z,937.96
2016-02-12T09:42:11.140Z,937.98
2016-02-12T09:43:11.095Z,937.96
2016-02-12T09:44:11.051Z,937.96
2016-02-12T09:45:10.991Z,937.94
2016-02-12T09:46:10.945Z,937.95
2016-02-12T09:47:10.900Z,937.92
2016-02-12T09:48:10.855Z,937.92
2016-02-12T09:49:10.811Z,937.89
2016-02-12T09:50:10.767Z,937.85
2016-02-12T09:51:10.723Z,937.81
2016-02-12T09:52:06.462Z,937.81
2016-02-12T09:53:10.621Z,937.8
2016-02-12T09:54:10.593Z,937.79
2016-02-12T09:55:10.534Z,937.77
2016-02-12T09:56:10.505Z,937.76
2016-02-12T09:57:10.429Z,937.73
2016-02-12T09:58:10.384Z,937.74
2016-02-12T09:59:10.340Z,937.74
2016-02-12T10:00:10.312Z,937.75
2016-02-12T10:01:10.236Z,937.66
2016-02-12T10:02:10.193Z,937.65
2016-02-12T10:03:10.146Z,937.67
2016-02-12T10:04:10.102Z,937.63
2016-02-12T10:05:10.060Z,937.6
2016-02-12T10:06:09.999Z,937.62
2016-02-12T10:07:09.955Z,937.59
2016-02-12T10:08:09.927Z,937.57
2016-02-12T10:09:09.851Z,937.56
2016-02-12T10:10:09.809Z,937.57
2016-02-12T10:11:09.782Z,937.53
2016-02-12T10:12:09.706Z,937.53
2016-02-12T10:13:09.681Z,937.49
2016-02-12T10:14:09.622Z,937.48
2016-02-12T10:15:09.561Z,937.47
2016-02-12T10:16:09.517Z,937.45
2016-02-12T10:17:09.458Z,937.47
2016-02-12T10:18:09.398Z,937.43
2016-02-12T10:19:09.370Z,937.39
2016-02-12T10:20:09.311Z,937.4
2016-02-12T10:21:09.266Z,937.37
2016-02-12T10:22:09.206Z,937.36
2016-02-12T10:23:09.162Z,937.33
2016-02-12T10:24:09.118Z,937.29
2016-02-12T10:25:09.075Z,937.28
2016-02-12T10:26:09.030Z,937.28
2016-02-12T10:27:08.957Z,937.26
2016-02-12T10:28:08.927Z,937.23
2016-02-12T10:29:08.868Z,937.24
2016-02-12T10:30:08.840Z,937.23
2016-02-12T10:31:08.779Z,937.2
2016-02-12T10:32:08.720Z,937.13
2016-02-12T10:33:08.676Z,937.11
2016-02-12T10:34:08.631Z,937.08
2016-02-12T10:35:08.571Z,937.08
2016-02-12T10:36:08.544Z,937.04
2016-02-12T10:37:08.516Z,937.01
2016-02-12T10:38:08.424Z,937.01
2016-02-12T10:39:08.398Z,937.01
2016-02-12T10:40:08.322Z,936.93
2016-02-12T10:41:08.278Z,936.91
2016-02-12T10:42:08.234Z,936.89
2016-02-12T10:43:08.190Z,936.88
2016-02-12T10:44:08.119Z,936.86
2016-02-12T10:45:08.075Z,936.83
2016-02-12T10:46:08.030Z,936.83
2016-02-12T10:47:07.975Z,936.79
2016-02-12T10:48:07.932Z,936.78
2016-02-12T10:49:07.888Z,936.72
2016-02-12T10:50:07.829Z,936.75
2016-02-12T10:51:07.784Z,936.71
2016-02-12T10:52:07.725Z,936.68
2016-02-12T10:53:07.696Z,936.64
2016-02-12T10:54:07.652Z,936.64
2016-02-12T10:55:07.608Z,936.6
2016-02-12T10:56:07.548Z,936.62
2016-02-12T10:57:07.535Z,936.58
2016-02-12T10:58:07.444Z,936.64
2016-02-12T10:59:07.400Z,936.64
2016-02-12T11:00:07.402Z,936.56
2016-02-12T11:01:07.405Z,936.56
2016-02-12T11:02:07.283Z,936.54
2016-02-12T11:03:07.222Z,936.55
2016-02-12T11:04:07.195Z,936.48
2016-02-12T11:05:07.104Z,936.49
2016-02-12T11:06:07.185Z,936.44
2016-02-12T11:07:07.016Z,936.4
2016-02-12T11:08:06.953Z,936.37
2016-02-12T11:09:06.908Z,936.31
2016-02-12T11:10:06.864Z,936.32
2016-02-12T11:11:06.805Z,936.26
2016-02-12T11:12:06.761Z,936.26
2016-02-12T11:13:06.733Z,936.22
2016-02-12T11:14:06.662Z,936.21
2016-02-12T11:15:06.617Z,936.21
2016-02-12T11:16:06.572Z,936.16
2016-02-12T11:17:06.545Z,936.16
2016-02-12T11:18:06.484Z,936.12
2016-02-12T11:19:06.440Z,936.09
2016-02-12T11:20:06.442Z,936.09
2016-02-12T11:21:06.321Z,936.05
2016-02-12T11:22:06.309Z,936.01
2016-02-12T11:23:06.249Z,935.96
2016-02-12T11:24:06.221Z,935.94
2016-02-12T11:25:06.145Z,935.92
2016-02-12T11:26:06.101Z,935.94
2016-02-12T11:27:06.041Z,935.87
2016-02-12T11:28:05.996Z,935.83
2016-02-12T11:29:05.953Z,935.83
2016-02-12T11:30:05.913Z,935.77
2016-02-12T11:31:05.853Z,935.74
2016-02-12T11:32:05.825Z,935.66
2016-02-12T11:33:05.765Z,935.65
2016-02-12T11:34:05.705Z,935.61
2016-02-12T11:35:05.677Z,935.61
2016-02-12T11:36:05.633Z,935.56
2016-02-12T11:37:05.572Z,935.53
2016-02-12T11:38:05.544Z,935.52
2016-02-12T11:39:05.534Z,935.52
2016-02-12T11:40:05.442Z,935.46
2016-02-12T11:41:05.399Z,935.43
2016-02-12T11:42:05.355Z,935.43
2016-02-12T11:43:05.311Z,935.42
2016-02-12T11:44:05.270Z,935.36
2016-02-12T11:45:05.210Z,935.36
2016-02-12T11:46:05.213Z,935.37
2016-02-12T11:47:05.138Z,935.3
2016-02-12T11:48:05.079Z,935.31
2016-02-12T11:49:05.035Z,935.31
2016-02-12T11:50:04.974Z,935.28
2016-02-12T11:51:04.931Z,935.25
2016-02-12T11:52:04.903Z,935.23
2016-02-12T11:53:04.843Z,935.17
2016-02-12T11:54:04.799Z,935.18
2016-02-12T11:55:04.771Z,935.15
2016-02-12T11:56:04.727Z,935.12
2016-02-12T11:57:04.668Z,935.07
2016-02-12T11:58:04.640Z,935.06
2016-02-12T11:59:04.567Z,935.06
2016-02-12T12:00:04.522Z,935.04
2016-02-12T12:01:04.494Z,935.03
2016-02-12T12:02:04.418Z,935.03
2016-02-12T12:03:04.375Z,935.02
2016-02-12T12:04:04.345Z,934.98
2016-02-12T12:05:04.271Z,934.92
2016-02-12T12:06:04.243Z,934.94
2016-02-12T12:07:04.198Z,934.87
2016-02-12T12:08:04.140Z,934.87
2016-02-12T12:09:04.096Z,934.85
2016-02-12T12:10:04.052Z,934.82
2016-02-12T12:11:04.007Z,934.75
2016-02-12T12:12:03.947Z,934.7
2016-02-12T12:13:03.903Z,934.69
2016-02-12T12:14:03.859Z,934.69
2016-02-12T12:15:03.815Z,934.67
2016-02-12T12:16:03.756Z,934.62
2016-02-12T12:17:03.713Z,934.63
2016-02-12T12:18:03.669Z,934.59
2016-02-12T12:19:03.609Z,934.58
2016-02-12T12:20:03.565Z,934.53
2016-02-12T12:21:03.521Z,934.47
2016-02-12T12:22:03.492Z,934.45
2016-02-12T12:23:03.448Z,934.38
2016-02-12T12:24:03.373Z,934.37
2016-02-12T12:25:03.313Z,934.37
2016-02-12T12:26:03.270Z,934.38
2016-02-12T12:27:03.256Z,934.33
2016-02-12T12:28:03.181Z,934.31
2016-02-12T12:29:03.121Z,934.29
2016-02-12T12:30:03.076Z,934.23